sensor_id;sensor_type;location;lat;lon;timestamp;pressure;altitude;pressure_sealevel;temperature;humidity
31346;BME280;21711;49.708;18.568;2022-11-06T00:01:57;97679.28;;;7.62;100.00
31346;BME280;21711;49.708;18.568;2022-11-06T00:04:28;97682.63;;;7.75;100.00
31346;BME280;21711;49.708;18.568;2022-11-06T00:06:56;97685.25;;;7.75;100.00
31346;BME280;21711;49.708;18.568;2022-11-06T00:09:23;97691.38;;;7.81;100.00
31346;BME280;21711;49.708;18.568;2022-11-06T00:11:50;97688.06;;;7.90;100.00
31346;BME280;21711;49.708;18.568;2022-11-06T00:14:18;97696.31;;;7.94;100.00
31346;BME280;21711;49.708;18.568;2022-11-06T00:16:46;97696.59;;;7.98;100.00
31346;BME280;21711;49.708;18.568;2022-11-06T00:19:14;97695.38;;;8.06;100.00
31346;BME280;21711;49.708;18.568;2022-11-06T00:21:42;97698.50;;;8.02;100.00
31346;BME280;21711;49.708;18.568;2022-11-06T00:24:12;97692.91;;;7.99;100.00
31346;BME280;21711;49.708;18.568;2022-11-06T00:26:40;97696.47;;;7.87;100.00
31346;BME280;21711;49.708;18.568;2022-11-06T00:29:13;97691.16;;;7.82;100.00
31346;BME280;21711;49.708;18.568;2022-11-06T00:31:41;97704.91;;;7.89;100.00
31346;BME280;21711;49.708;18.568;2022-11-06T00:34:09;97712.09;;;7.94;100.00
31346;BME280;21711;49.708;18.568;2022-11-06T00:36:36;97708.72;;;7.99;100.00
31346;BME280;21711;49.708;18.568;2022-11-06T00:39:04;97710.19;;;7.89;100.00
31346;BME280;21711;49.708;18.568;2022-11-06T00:41:31;97707.63;;;7.95;100.00
31346;BME280;21711;49.708;18.568;2022-11-06T00:44:00;97705.97;;;7.88;100.00
31346;BME280;21711;49.708;18.568;2022-11-06T00:46:29;97707.13;;;7.98;100.00
31346;BME280;21711;49.708;18.568;2022-11-06T00:48:56;97704.25;;;7.99;100.00
31346;BME280;21711;49.708;18.568;2022-11-06T00:51:32;97706.28;;;7.92;100.00
31346;BME280;21711;49.708;18.568;2022-11-06T00:54:04;97706.34;;;7.58;100.00
31346;BME280;21711;49.708;18.568;2022-11-06T00:56:32;97709.38;;;7.49;100.00
31346;BME280;21711;49.708;18.568;2022-11-06T00:59:04;97701.78;;;7.53;100.00
31346;BME280;21711;49.708;18.568;2022-11-06T01:01:38;97705.00;;;7.55;100.00
31346;BME280;21711;49.708;18.568;2022-11-06T01:04:16;97705.16;;;7.48;100.00
31346;BME280;21711;49.708;18.568;2022-11-06T01:06:50;97708.00;;;7.64;100.00
31346;BME280;21711;49.708;18.568;2022-11-06T01:09:24;97705.94;;;7.66;100.00
31346;BME280;21711;49.708;18.568;2022-11-06T01:11:57;97703.06;;;7.68;100.00
31346;BME280;21711;49.708;18.568;2022-11-06T01:14:40;97711.91;;;7.61;100.00
31346;BME280;21711;49.708;18.568;2022-11-06T01:17:07;97709.69;;;7.53;100.00
31346;BME280;21711;49.708;18.568;2022-11-06T01:19:35;97707.47;;;7.62;100.00
31346;BME280;21711;49.708;18.568;2022-11-06T01:22:02;97702.97;;;7.62;100.00
31346;BME280;21711;49.708;18.568;2022-11-06T01:24:30;97708.34;;;7.50;100.00
31346;BME280;21711;49.708;18.568;2022-11-06T01:26:57;97710.72;;;7.52;100.00
31346;BME280;21711;49.708;18.568;2022-11-06T01:29:45;97706.91;;;7.43;100.00
31346;BME280;21711;49.708;18.568;2022-11-06T01:32:12;97710.72;;;7.52;100.00
31346;BME280;21711;49.708;18.568;2022-11-06T01:34:39;97702.53;;;7.48;100.00
31346;BME280;21711;49.708;18.568;2022-11-06T01:37:07;97703.47;;;7.59;100.00
31346;BME280;21711;49.708;18.568;2022-11-06T01:39:40;97702.28;;;7.50;100.00
31346;BME280;21711;49.708;18.568;2022-11-06T01:42:11;97706.59;;;7.39;100.00
31346;BME280;21711;49.708;18.568;2022-11-06T01:47:27;97700.88;;;7.25;100.00
31346;BME280;21711;49.708;18.568;2022-11-06T01:50:02;97695.72;;;7.13;100.00
31346;BME280;21711;49.708;18.568;2022-11-06T01:52:32;97694.66;;;7.31;100.00
31346;BME280;21711;49.708;18.568;2022-11-06T01:55:23;97690.50;;;7.35;100.00
31346;BME280;21711;49.708;18.568;2022-11-06T01:57:52;97689.53;;;7.42;100.00
31346;BME280;21711;49.708;18.568;2022-11-06T02:00:20;97693.53;;;7.44;100.00
31346;BME280;21711;49.708;18.568;2022-11-06T02:02:47;97682.38;;;7.37;100.00
31346;BME280;21711;49.708;18.568;2022-11-06T02:05:16;97686.75;;;7.31;100.00
31346;BME280;21711;49.708;18.568;2022-11-06T02:07:44;97694.34;;;7.45;100.00
31346;BME280;21711;49.708;18.568;2022-11-06T02:10:11;97690.19;;;7.49;100.00
31346;BME280;21711;49.708;18.568;2022-11-06T05:13:46;97753.25;;;6.80;100.00
31346;BME280;21711;49.708;18.568;2022-11-06T05:16:14;97752.53;;;6.68;100.00
31346;BME280;21711;49.708;18.568;2022-11-06T05:18:41;97752.53;;;6.68;100.00
31346;BME280;21711;49.708;18.568;2022-11-06T05:21:09;97760.97;;;6.70;100.00
31346;BME280;21711;49.708;18.568;2022-11-06T05:23:55;97764.88;;;6.67;100.00
31346;BME280;21711;49.708;18.568;2022-11-06T05:26:22;97765.50;;;6.75;100.00
31346;BME280;21711;49.708;18.568;2022-11-06T05:28:49;97767.91;;;6.76;100.00
31346;BME280;21711;49.708;18.568;2022-11-06T05:31:17;97767.91;;;6.76;100.00
31346;BME280;21711;49.708;18.568;2022-11-06T05:33:44;97767.63;;;6.61;100.00
31346;BME280;21711;49.708;18.568;2022-11-06T05:36:11;97770.47;;;6.59;100.00
31346;BME280;21711;49.708;18.568;2022-11-06T05:38:38;97759.88;;;6.54;100.00
31346;BME280;21711;49.708;18.568;2022-11-06T05:41:06;97759.34;;;6.40;100.00
31346;BME280;21711;49.708;18.568;2022-11-06T05:43:33;97760.47;;;6.56;100.00
31346;BME280;21711;49.708;18.568;2022-11-06T05:46:01;97769.00;;;6.63;100.00
31346;BME280;21711;49.708;18.568;2022-11-06T05:48:28;97770.81;;;6.63;100.00
31346;BME280;21711;49.708;18.568;2022-11-06T05:51:01;97772.97;;;6.66;100.00
31346;BME280;21711;49.708;18.568;2022-11-06T05:53:34;97779.19;;;6.60;100.00
31346;BME280;21711;49.708;18.568;2022-11-06T05:56:03;97780.81;;;6.78;100.00
31346;BME280;21711;49.708;18.568;2022-11-06T05:58:31;97790.19;;;6.74;100.00
31346;BME280;21711;49.708;18.568;2022-11-06T06:00:58;97789.69;;;6.60;100.00
31346;BME280;21711;49.708;18.568;2022-11-06T06:03:26;97788.31;;;6.57;100.00
31346;BME280;21711;49.708;18.568;2022-11-06T06:05:53;97793.63;;;6.74;100.00
31346;BME280;21711;49.708;18.568;2022-11-06T06:08:20;97797.25;;;6.85;100.00
31346;BME280;21711;49.708;18.568;2022-11-06T06:10:48;97784.34;;;6.83;100.00
31346;BME280;21711;49.708;18.568;2022-11-06T06:13:16;97785.56;;;6.93;100.00
31346;BME280;21711;49.708;18.568;2022-11-06T06:15:43;97790.75;;;6.88;100.00
31346;BME280;21711;49.708;18.568;2022-11-06T06:18:11;97795.56;;;6.79;100.00
31346;BME280;21711;49.708;18.568;2022-11-06T06:20:39;97787.47;;;6.68;100.00
31346;BME280;21711;49.708;18.568;2022-11-06T06:23:06;97785.16;;;6.72;100.00
31346;BME280;21711;49.708;18.568;2022-11-06T06:25:35;97771.72;;;6.68;100.00
31346;BME280;21711;49.708;18.568;2022-11-06T06:28:02;97776.41;;;6.66;100.00
31346;BME280;21711;49.708;18.568;2022-11-06T06:30:30;97768.78;;;6.53;100.00
31346;BME280;21711;49.708;18.568;2022-11-06T06:33:04;97769.47;;;6.48;100.00
31346;BME280;21711;49.708;18.568;2022-11-06T06:35:32;97777.94;;;6.50;100.00
31346;BME280;21711;49.708;18.568;2022-11-06T06:37:59;97773.09;;;6.59;100.00
31346;BME280;21711;49.708;18.568;2022-11-06T06:40:27;97782.22;;;6.68;100.00
31346;BME280;21711;49.708;18.568;2022-11-06T06:42:57;97784.66;;;6.87;100.00
31346;BME280;21711;49.708;18.568;2022-11-06T06:45:25;97783.19;;;7.08;100.00
31346;BME280;21711;49.708;18.568;2022-11-06T07:02:36;97779.00;;;7.42;100.00
31346;BME280;21711;49.708;18.568;2022-11-06T07:05:03;97775.69;;;7.46;100.00
31346;BME280;21711;49.708;18.568;2022-11-06T07:07:31;97788.59;;;7.65;100.00
31346;BME280;21711;49.708;18.568;2022-11-06T07:10:00;97779.31;;;7.62;100.00
31346;BME280;21711;49.708;18.568;2022-11-06T07:12:28;97777.97;;;7.60;100.00
31346;BME280;21711;49.708;18.568;2022-11-06T07:14:55;97785.38;;;7.63;100.00
31346;BME280;21711;49.708;18.568;2022-11-06T07:17:22;97781.56;;;7.71;100.00
31346;BME280;21711;49.708;18.568;2022-11-06T07:19:49;97772.59;;;7.72;100.00
31346;BME280;21711;49.708;18.568;2022-11-06T07:22:17;97780.25;;;7.90;100.00
31346;BME280;21711;49.708;18.568;2022-11-06T07:24:55;97783.28;;;7.99;100.00
31346;BME280;21711;49.708;18.568;2022-11-06T07:27:22;97788.47;;;7.94;100.00
31346;BME280;21711;49.708;18.568;2022-11-06T07:29:50;97784.09;;;7.66;100.00
31346;BME280;21711;49.708;18.568;2022-11-06T07:32:17;97778.47;;;7.57;100.00
31346;BME280;21711;49.708;18.568;2022-11-06T07:34:45;97781.31;;;7.55;100.00
31346;BME280;21711;49.708;18.568;2022-11-06T07:37:12;97782.34;;;7.71;100.00
31346;BME280;21711;49.708;18.568;2022-11-06T07:39:39;97778.06;;;7.65;100.00
31346;BME280;21711;49.708;18.568;2022-11-06T07:42:07;97783.00;;;7.44;100.00
31346;BME280;21711;49.708;18.568;2022-11-06T07:44:36;97776.06;;;7.55;100.00
31346;BME280;21711;49.708;18.568;2022-11-06T07:47:04;97777.81;;;7.49;100.00
31346;BME280;21711;49.708;18.568;2022-11-06T07:49:32;97780.03;;;7.58;100.00
31346;BME280;21711;49.708;18.568;2022-11-06T07:51:59;97778.78;;;7.60;100.00
31346;BME280;21711;49.708;18.568;2022-11-06T07:54:27;97773.44;;;7.55;100.00
31346;BME280;21711;49.708;18.568;2022-11-06T07:56:54;97773.59;;;7.48;100.00
31346;BME280;21711;49.708;18.568;2022-11-06T07:59:22;97775.03;;;7.56;100.00
31346;BME280;21711;49.708;18.568;2022-11-06T08:01:50;97778.31;;;7.63;100.00
31346;BME280;21711;49.708;18.568;2022-11-06T08:04:17;97780.94;;;7.46;100.00
31346;BME280;21711;49.708;18.568;2022-11-06T08:06:45;97775.75;;;7.52;100.00
31346;BME280;21711;49.708;18.568;2022-11-06T08:09:12;97779.00;;;7.42;100.00
31346;BME280;21711;49.708;18.568;2022-11-06T08:11:40;97781.88;;;7.40;100.00
31346;BME280;21711;49.708;18.568;2022-11-06T08:14:07;97781.47;;;7.31;100.00
31346;BME280;21711;49.708;18.568;2022-11-06T08:16:34;97784.91;;;7.32;100.00
31346;BME280;21711;49.708;18.568;2022-11-06T08:19:01;97777.47;;;7.12;100.00
31346;BME280;21711;49.708;18.568;2022-11-06T08:21:29;97779.00;;;7.24;100.00
31346;BME280;21711;49.708;18.568;2022-11-06T08:23:56;97781.25;;;7.33;100.00
31346;BME280;21711;49.708;18.568;2022-11-06T08:26:24;97780.41;;;7.15;100.00
31346;BME280;21711;49.708;18.568;2022-11-06T08:28:52;97778.59;;;7.16;100.00
31346;BME280;21711;49.708;18.568;2022-11-06T08:31:20;97773.50;;;7.09;100.00
31346;BME280;21711;49.708;18.568;2022-11-06T08:33:47;97772.16;;;7.23;100.00
31346;BME280;21711;49.708;18.568;2022-11-06T08:36:15;97769.06;;;6.97;100.00
31346;BME280;21711;49.708;18.568;2022-11-06T08:38:42;97763.84;;;7.15;100.00
31346;BME280;21711;49.708;18.568;2022-11-06T08:41:13;97761.19;;;7.15;100.00
31346;BME280;21711;49.708;18.568;2022-11-06T08:43:41;97762.25;;;7.14;100.00
31346;BME280;21711;49.708;18.568;2022-11-06T08:46:09;97763.88;;;7.32;100.00
31346;BME280;21711;49.708;18.568;2022-11-06T08:48:36;97758.59;;;7.32;100.00
31346;BME280;21711;49.708;18.568;2022-11-06T08:51:05;97766.00;;;7.35;100.00
31346;BME280;21711;49.708;18.568;2022-11-06T08:53:32;97767.28;;;7.49;100.00
31346;BME280;21711;49.708;18.568;2022-11-06T08:56:03;97769.53;;;7.58;100.00
31346;BME280;21711;49.708;18.568;2022-11-06T08:58:30;97779.00;;;7.76;100.00
31346;BME280;21711;49.708;18.568;2022-11-06T09:00:58;97770.72;;;7.50;100.00
31346;BME280;21711;49.708;18.568;2022-11-06T09:03:25;97769.34;;;7.65;100.00
31346;BME280;21711;49.708;18.568;2022-11-06T09:05:52;97770.53;;;7.91;100.00
31346;BME280;21711;49.708;18.568;2022-11-06T09:08:20;97770.88;;;8.00;100.00
31346;BME280;21711;49.708;18.568;2022-11-06T09:10:47;97776.66;;;7.97;100.00
31346;BME280;21711;49.708;18.568;2022-11-06T09:13:18;97775.00;;;7.73;100.00
31346;BME280;21711;49.708;18.568;2022-11-06T09:15:45;97778.44;;;7.74;100.00
31346;BME280;21711;49.708;18.568;2022-11-06T09:18:13;97776.75;;;7.85;100.00
31346;BME280;21711;49.708;18.568;2022-11-06T09:20:40;97781.59;;;8.33;100.00
31346;BME280;21711;49.708;18.568;2022-11-06T09:23:08;97776.97;;;8.45;100.00
31346;BME280;21711;49.708;18.568;2022-11-06T09:25:35;97778.78;;;8.62;100.00
31346;BME280;21711;49.708;18.568;2022-11-06T09:28:03;97777.84;;;8.73;100.00
31346;BME280;21711;49.708;18.568;2022-11-06T09:30:31;97781.09;;;8.80;100.00
31346;BME280;21711;49.708;18.568;2022-11-06T09:33:01;97777.94;;;8.56;100.00
31346;BME280;21711;49.708;18.568;2022-11-06T09:35:32;97770.81;;;8.34;100.00
31346;BME280;21711;49.708;18.568;2022-11-06T09:38:05;97774.34;;;8.45;100.00
31346;BME280;21711;49.708;18.568;2022-11-06T09:40:46;97777.84;;;8.51;100.00
31346;BME280;21711;49.708;18.568;2022-11-06T09:46:29;97772.19;;;8.59;100.00
31346;BME280;21711;49.708;18.568;2022-11-06T09:49:19;97767.94;;;8.58;100.00
31346;BME280;21711;49.708;18.568;2022-11-06T09:51:59;97767.88;;;8.75;100.00
31346;BME280;21711;49.708;18.568;2022-11-06T09:54:39;97765.66;;;8.94;100.00
31346;BME280;21711;49.708;18.568;2022-11-06T10:00:01;97764.28;;;8.87;100.00
31346;BME280;21711;49.708;18.568;2022-11-06T10:02:46;97756.72;;;8.95;100.00
31346;BME280;21711;49.708;18.568;2022-11-06T10:05:28;97763.75;;;8.85;100.00
31346;BME280;21711;49.708;18.568;2022-11-06T10:08:15;97757.47;;;8.91;100.00
31346;BME280;21711;49.708;18.568;2022-11-06T10:20:25;97752.81;;;8.98;100.00
31346;BME280;21711;49.708;18.568;2022-11-06T10:23:04;97746.84;;;9.13;100.00
31346;BME280;21711;49.708;18.568;2022-11-06T10:32:18;97731.81;;;9.14;100.00
31346;BME280;21711;49.708;18.568;2022-11-06T10:35:04;97719.47;;;9.57;100.00
31346;BME280;21711;49.708;18.568;2022-11-06T10:38:14;97722.91;;;10.11;100.00
31346;BME280;21711;49.708;18.568;2022-11-06T10:40:33;97728.78;;;10.29;100.00
31346;BME280;21711;49.708;18.568;2022-11-06T10:43:32;97718.91;;;10.04;100.00
31346;BME280;21711;49.708;18.568;2022-11-06T10:46:39;97716.81;;;10.06;100.00
31346;BME280;21711;49.708;18.568;2022-11-06T10:52:47;97708.47;;;9.76;100.00
31346;BME280;21711;49.708;18.568;2022-11-06T10:55:50;97704.66;;;9.51;100.00
31346;BME280;21711;49.708;18.568;2022-11-06T10:58:25;97698.13;;;9.64;100.00
31346;BME280;21711;49.708;18.568;2022-11-06T11:01:01;97696.63;;;9.84;100.00
31346;BME280;21711;49.708;18.568;2022-11-06T11:03:40;97698.66;;;9.71;100.00
31346;BME280;21711;49.708;18.568;2022-11-06T11:06:09;97686.50;;;9.65;100.00
31346;BME280;21711;49.708;18.568;2022-11-06T11:08:41;97686.94;;;9.52;100.00
31346;BME280;21711;49.708;18.568;2022-11-06T11:16:38;97683.91;;;9.76;100.00
31346;BME280;21711;49.708;18.568;2022-11-06T11:19:25;97680.03;;;9.94;100.00
31346;BME280;21711;49.708;18.568;2022-11-06T11:22:04;97670.22;;;9.89;100.00
31346;BME280;21711;49.708;18.568;2022-11-06T11:24:31;97673.34;;;9.76;100.00
31346;BME280;21711;49.708;18.568;2022-11-06T11:27:03;97678.03;;;9.58;100.00
31346;BME280;21711;49.708;18.568;2022-11-06T11:29:45;97673.75;;;9.52;100.00
31346;BME280;21711;49.708;18.568;2022-11-06T11:32:16;97661.06;;;9.49;100.00
31346;BME280;21711;49.708;18.568;2022-11-06T11:34:51;97662.19;;;9.58;100.00
31346;BME280;21711;49.708;18.568;2022-11-06T11:37:31;97662.97;;;9.58;100.00
31346;BME280;21711;49.708;18.568;2022-11-06T11:40:36;97668.84;;;9.71;100.00
31346;BME280;21711;49.708;18.568;2022-11-06T11:48:50;97654.81;;;9.65;100.00
31346;BME280;21711;49.708;18.568;2022-11-06T11:51:37;97654.41;;;9.41;100.00
31346;BME280;21711;49.708;18.568;2022-11-06T11:57:17;97652.78;;;9.34;100.00
31346;BME280;21711;49.708;18.568;2022-11-06T11:59:50;97646.78;;;9.44;100.00
31346;BME280;21711;49.708;18.568;2022-11-06T12:02:39;97650.44;;;9.38;100.00
31346;BME280;21711;49.708;18.568;2022-11-06T12:05:24;97643.53;;;9.32;100.00
31346;BME280;21711;49.708;18.568;2022-11-06T12:07:56;97646.66;;;9.24;100.00
31346;BME280;21711;49.708;18.568;2022-11-06T12:10:41;97643.03;;;8.97;100.00
31346;BME280;21711;49.708;18.568;2022-11-06T12:16:06;97640.06;;;8.88;100.00
31346;BME280;21711;49.708;18.568;2022-11-06T12:18:44;97635.41;;;8.68;100.00
31346;BME280;21711;49.708;18.568;2022-11-06T12:21:31;97633.00;;;8.61;100.00
31346;BME280;21711;49.708;18.568;2022-11-06T12:27:10;97634.81;;;8.88;100.00
31346;BME280;21711;49.708;18.568;2022-11-06T12:29:45;97635.81;;;8.82;100.00
31346;BME280;21711;49.708;18.568;2022-11-06T12:38:05;97639.66;;;9.02;100.00
31346;BME280;21711;49.708;18.568;2022-11-06T12:40:38;97630.88;;;8.91;100.00
31346;BME280;21711;49.708;18.568;2022-11-06T12:55:30;97626.75;;;8.45;100.00
31346;BME280;21711;49.708;18.568;2022-11-06T12:58:36;97629.59;;;8.38;100.00
31346;BME280;21711;49.708;18.568;2022-11-06T13:02:13;97620.47;;;8.46;100.00
31346;BME280;21711;49.708;18.568;2022-11-06T13:05:17;97615.38;;;8.39;100.00
31346;BME280;21711;49.708;18.568;2022-11-06T13:19:28;97602.78;;;7.92;100.00
31346;BME280;21711;49.708;18.568;2022-11-06T13:22:36;97600.78;;;8.04;100.00
31346;BME280;21711;49.708;18.568;2022-11-06T13:30:43;97588.88;;;8.24;100.00
31346;BME280;21711;49.708;18.568;2022-11-06T13:33:28;97597.38;;;8.03;100.00
31346;BME280;21711;49.708;18.568;2022-11-06T13:35:58;97590.44;;;7.97;100.00
31346;BME280;21711;49.708;18.568;2022-11-06T13:38:39;97591.75;;;7.95;100.00
31346;BME280;21711;49.708;18.568;2022-11-06T13:41:24;97584.31;;;8.14;100.00
31346;BME280;21711;49.708;18.568;2022-11-06T13:44:10;97587.47;;;8.16;100.00
31346;BME280;21711;49.708;18.568;2022-11-06T13:50:13;97586.59;;;8.33;100.00
31346;BME280;21711;49.708;18.568;2022-11-06T13:52:56;97575.41;;;8.20;100.00
31346;BME280;21711;49.708;18.568;2022-11-06T13:56:16;97566.97;;;8.18;100.00
31346;BME280;21711;49.708;18.568;2022-11-06T13:59:27;97566.56;;;8.04;100.00
31346;BME280;21711;49.708;18.568;2022-11-06T14:08:46;97548.50;;;8.46;100.00
31346;BME280;21711;49.708;18.568;2022-11-06T14:11:19;97552.72;;;8.47;100.00
31346;BME280;21711;49.708;18.568;2022-11-06T14:14:01;97547.03;;;8.27;100.00
31346;BME280;21711;49.708;18.568;2022-11-06T14:16:33;97550.31;;;8.12;100.00
31346;BME280;21711;49.708;18.568;2022-11-06T14:19:09;97546.72;;;7.96;100.00
31346;BME280;21711;49.708;18.568;2022-11-06T14:21:49;97550.16;;;7.97;100.00
31346;BME280;21711;49.708;18.568;2022-11-06T14:24:32;97550.19;;;7.74;100.00
31346;BME280;21711;49.708;18.568;2022-11-06T14:30:03;97554.25;;;7.82;100.00
31346;BME280;21711;49.708;18.568;2022-11-06T14:32:38;97550.31;;;7.85;100.00
31346;BME280;21711;49.708;18.568;2022-11-06T14:40:38;97554.25;;;8.10;100.00
31346;BME280;21711;49.708;18.568;2022-11-06T14:43:34;97539.53;;;8.14;100.00
31346;BME280;21711;49.708;18.568;2022-11-06T14:46:19;97543.34;;;8.28;100.00
31346;BME280;21711;49.708;18.568;2022-11-06T14:48:52;97544.84;;;8.19;100.00
31346;BME280;21711;49.708;18.568;2022-11-06T14:51:28;97533.25;;;8.20;100.00
31346;BME280;21711;49.708;18.568;2022-11-06T14:54:02;97536.91;;;8.14;100.00
31346;BME280;21711;49.708;18.568;2022-11-06T14:56:35;97532.47;;;7.92;100.00
31346;BME280;21711;49.708;18.568;2022-11-06T14:59:25;97541.41;;;7.91;100.00
31346;BME280;21711;49.708;18.568;2022-11-06T15:02:24;97535.63;;;7.89;100.00
31346;BME280;21711;49.708;18.568;2022-11-06T15:05:16;97532.03;;;7.73;100.00
31346;BME280;21711;49.708;18.568;2022-11-06T15:15:47;97519.97;;;7.10;100.00
31346;BME280;21711;49.708;18.568;2022-11-06T15:18:20;97513.78;;;6.99;100.00
31346;BME280;21711;49.708;18.568;2022-11-06T15:20:59;97512.81;;;6.88;100.00
31346;BME280;21711;49.708;18.568;2022-11-06T15:26:31;97500.91;;;6.80;100.00
31346;BME280;21711;49.708;18.568;2022-11-06T15:31:28;97502.75;;;6.80;100.00
31346;BME280;21711;49.708;18.568;2022-11-06T15:34:01;97500.91;;;6.80;100.00
31346;BME280;21711;49.708;18.568;2022-11-06T15:36:37;97507.03;;;6.86;100.00
31346;BME280;21711;49.708;18.568;2022-11-06T15:40:02;97495.31;;;6.94;100.00
31346;BME280;21711;49.708;18.568;2022-11-06T15:42:39;97498.56;;;7.01;100.00
31346;BME280;21711;49.708;18.568;2022-11-06T15:47:38;97497.00;;;7.05;100.00
31346;BME280;21711;49.708;18.568;2022-11-06T15:50:22;97500.81;;;7.15;100.00
31346;BME280;21711;49.708;18.568;2022-11-06T15:52:49;97505.28;;;6.92;100.00
31346;BME280;21711;49.708;18.568;2022-11-06T15:55:30;97498.03;;;6.82;100.00
31346;BME280;21711;49.708;18.568;2022-11-06T16:00:44;97503.63;;;7.08;100.00
31346;BME280;21711;49.708;18.568;2022-11-06T16:03:16;97505.41;;;7.24;100.00
31346;BME280;21711;49.708;18.568;2022-11-06T16:05:45;97500.84;;;7.37;100.00
31346;BME280;21711;49.708;18.568;2022-11-06T16:08:15;97491.66;;;7.40;100.00
31346;BME280;21711;49.708;18.568;2022-11-06T16:10:45;97494.09;;;7.46;100.00
31346;BME280;21711;49.708;18.568;2022-11-06T16:13:21;97492.31;;;7.52;100.00
31346;BME280;21711;49.708;18.568;2022-11-06T16:18:32;97495.69;;;7.47;100.00
31346;BME280;21711;49.708;18.568;2022-11-06T16:23:42;97492.09;;;7.59;100.00
31346;BME280;21711;49.708;18.568;2022-11-06T16:26:23;97490.34;;;7.65;100.00
31346;BME280;21711;49.708;18.568;2022-11-06T16:28:53;97487.22;;;7.68;100.00
31346;BME280;21711;49.708;18.568;2022-11-06T16:31:25;97495.13;;;7.68;100.00
31346;BME280;21711;49.708;18.568;2022-11-06T16:34:03;97493.44;;;7.61;100.00
31346;BME280;21711;49.708;18.568;2022-11-06T16:36:50;97491.88;;;7.60;100.00
31346;BME280;21711;49.708;18.568;2022-11-06T16:42:19;97479.38;;;7.50;100.00
31346;BME280;21711;49.708;18.568;2022-11-06T16:44:50;97482.88;;;7.56;100.00
31346;BME280;21711;49.708;18.568;2022-11-06T16:47:25;97474.34;;;7.71;100.00
31346;BME280;21711;49.708;18.568;2022-11-06T16:49:57;97482.50;;;7.70;100.00
31346;BME280;21711;49.708;18.568;2022-11-06T16:52:25;97472.28;;;7.79;100.00
31346;BME280;21711;49.708;18.568;2022-11-06T16:57:47;97474.69;;;7.80;100.00
31346;BME280;21711;49.708;18.568;2022-11-06T17:03:01;97460.19;;;7.78;100.00
31346;BME280;21711;49.708;18.568;2022-11-06T17:05:35;97462.31;;;7.81;100.00
31346;BME280;21711;49.708;18.568;2022-11-06T17:10:58;97470.28;;;7.58;100.00
31346;BME280;21711;49.708;18.568;2022-11-06T17:13:28;97469.75;;;7.61;100.00
31346;BME280;21711;49.708;18.568;2022-11-06T17:16:03;97461.91;;;7.67;100.00
31346;BME280;21711;49.708;18.568;2022-11-06T17:18:37;97466.66;;;7.65;100.00
31346;BME280;21711;49.708;18.568;2022-11-06T17:21:14;97452.91;;;7.62;100.00
31346;BME280;21711;49.708;18.568;2022-11-06T17:23:42;97453.28;;;7.71;100.00
31346;BME280;21711;49.708;18.568;2022-11-06T17:26:26;97452.28;;;7.78;100.00
31346;BME280;21711;49.708;18.568;2022-11-06T17:28:55;97459.91;;;7.74;100.00
31346;BME280;21711;49.708;18.568;2022-11-06T17:31:24;97457.22;;;7.69;100.00
31346;BME280;21711;49.708;18.568;2022-11-06T17:33:53;97462.72;;;7.67;100.00
31346;BME280;21711;49.708;18.568;2022-11-06T17:36:26;97455.53;;;7.85;100.00
31346;BME280;21711;49.708;18.568;2022-11-06T17:38:56;97449.25;;;7.91;100.00
31346;BME280;21711;49.708;18.568;2022-11-06T17:41:25;97456.44;;;8.01;100.00
31346;BME280;21711;49.708;18.568;2022-11-06T17:44:02;97450.34;;;7.95;100.00
31346;BME280;21711;49.708;18.568;2022-11-06T17:46:33;97455.94;;;8.04;100.00
31346;BME280;21711;49.708;18.568;2022-11-06T17:49:02;97448.00;;;7.99;100.00
31346;BME280;21711;49.708;18.568;2022-11-06T17:51:30;97443.22;;;7.96;100.00
31346;BME280;21711;49.708;18.568;2022-11-06T17:54:25;97445.16;;;8.06;100.00
31346;BME280;21711;49.708;18.568;2022-11-06T17:56:54;97436.72;;;8.03;100.00
31346;BME280;21711;49.708;18.568;2022-11-06T17:59:22;97438.31;;;8.05;100.00
31346;BME280;21711;49.708;18.568;2022-11-06T18:01:53;97433.88;;;8.10;100.00
31346;BME280;21711;49.708;18.568;2022-11-06T18:04:24;97429.06;;;8.02;100.00
31346;BME280;21711;49.708;18.568;2022-11-06T18:06:53;97424.31;;;8.04;100.00
31346;BME280;21711;49.708;18.568;2022-11-06T18:09:21;97428.19;;;7.91;100.00
31346;BME280;21711;49.708;18.568;2022-11-06T18:11:51;97426.81;;;7.83;100.00
31346;BME280;21711;49.708;18.568;2022-11-06T18:14:21;97424.63;;;7.75;100.00
31346;BME280;21711;49.708;18.568;2022-11-06T18:16:49;97430.69;;;7.75;100.00
31346;BME280;21711;49.708;18.568;2022-11-06T18:19:21;97434.91;;;7.76;100.00
31346;BME280;21711;49.708;18.568;2022-11-06T18:21:49;97429.56;;;7.66;100.00
31346;BME280;21711;49.708;18.568;2022-11-06T18:24:17;97431.50;;;7.81;100.00
31346;BME280;21711;49.708;18.568;2022-11-06T18:26:45;97417.00;;;7.79;100.00
31346;BME280;21711;49.708;18.568;2022-11-06T18:29:12;97414.69;;;7.82;100.00
31346;BME280;21711;49.708;18.568;2022-11-06T18:31:41;97422.31;;;7.84;100.00
31346;BME280;21711;49.708;18.568;2022-11-06T18:34:14;97416.56;;;7.87;100.00
31346;BME280;21711;49.708;18.568;2022-11-06T18:36:48;97422.38;;;7.89;100.00
31346;BME280;21711;49.708;18.568;2022-11-06T18:39:16;97416.03;;;7.85;100.00
31346;BME280;21711;49.708;18.568;2022-11-06T18:41:44;97415.50;;;7.88;100.00
31346;BME280;21711;49.708;18.568;2022-11-06T18:44:14;97415.75;;;7.86;100.00
31346;BME280;21711;49.708;18.568;2022-11-06T18:46:41;97420.88;;;7.98;100.00
31346;BME280;21711;49.708;18.568;2022-11-06T18:49:09;97418.78;;;8.00;100.00
31346;BME280;21711;49.708;18.568;2022-11-06T18:51:38;97412.19;;;7.98;100.00
31346;BME280;21711;49.708;18.568;2022-11-06T18:54:10;97420.81;;;7.93;100.00
31346;BME280;21711;49.708;18.568;2022-11-06T18:56:38;97410.75;;;7.85;100.00